GLO1731 SBSN-SBBE
Flight info
| Callsign | GLO1731 |
|---|---|
| Flight time | 1h 5m |
| Altitude | 35000 |
| Route | EMAKE DCT PAKUT |
| Aircraft | B38M/M-SDE1FGHILORVWXY/HB1 |
Departure
| Time | 2026-04-23 02:50 |
|---|---|
| Airport | Santarém - Maestro Wilson Fonseca International Airport (SBSN) |
Arrival
| Time | 2026-04-23 03:55 |
|---|---|
| Airport | Val de Cans/Júlio Cezar Ribeiro International Airport (SBBE) |
| Time | Latitude | Longitude | Altitude | Speed | Heading |
|---|---|---|---|---|---|
| 2026-04-23 02:37 | -2.42348 | -54.78389 | 198 ft | 0 kts | 189° |
| 2026-04-23 02:42 | -2.42337 | -54.78387 | 198 ft | 2 kts | 189° |
| 2026-04-23 02:43 | -2.42327 | -54.78386 | 198 ft | 0 kts | 189° |
| 2026-04-23 02:43 | -2.42313 | -54.78386 | 198 ft | 2 kts | 144° |
| 2026-04-23 02:43 | -2.42305 | -54.78397 | 198 ft | 0 kts | 104° |
| 2026-04-23 02:43 | -2.42304 | -54.78403 | 198 ft | 1 kts | 94° |
| 2026-04-23 02:44 | -2.42304 | -54.78406 | 198 ft | 0 kts | 97° |
| 2026-04-23 02:47 | -2.42304 | -54.78404 | 197 ft | 1 kts | 97° |
| 2026-04-23 02:48 | -2.42308 | -54.78376 | 197 ft | 6 kts | 99° |
| 2026-04-23 02:48 | -2.42312 | -54.78323 | 196 ft | 7 kts | 54° |
| 2026-04-23 02:48 | -2.42264 | -54.78294 | 196 ft | 10 kts | 26° |
| 2026-04-23 02:48 | -2.42184 | -54.78261 | 194 ft | 14 kts | 20° |
| 2026-04-23 02:49 | -2.42093 | -54.78225 | 193 ft | 9 kts | 3° |
| 2026-04-23 02:49 | -2.42076 | -54.78268 | 194 ft | 0 kts | 262° |
| 2026-04-23 02:49 | -2.42076 | -54.78269 | 194 ft | 0 kts | 262° |
| 2026-04-23 02:49 | -2.42079 | -54.78284 | 194 ft | 14 kts | 261° |
| 2026-04-23 02:50 | -2.42137 | -54.78641 | 200 ft | 87 kts | 259° |
| 2026-04-23 02:50 | -2.42273 | -54.79459 | 201 ft | 149 kts | 260° |
| 2026-04-23 02:50 | -2.42463 | -54.80643 | 346 ft | 183 kts | 262° |
| 2026-04-23 02:50 | -2.42784 | -54.81833 | 972 ft | 185 kts | 236° |
| 2026-04-23 02:51 | -2.43821 | -54.82592 | 1494 ft | 188 kts | 188° |
| 2026-04-23 02:51 | -2.45118 | -54.82698 | 2017 ft | 192 kts | 171° |
| 2026-04-23 02:51 | -2.46470 | -54.82385 | 2376 ft | 207 kts | 151° |
| 2026-04-23 02:51 | -2.47691 | -54.81568 | 2797 ft | 222 kts | 136° |
| 2026-04-23 02:52 | -2.48893 | -54.80530 | 3327 ft | 236 kts | 136° |
| 2026-04-23 02:52 | -2.50195 | -54.79423 | 3864 ft | 251 kts | 137° |
| 2026-04-23 02:52 | -2.51577 | -54.78269 | 4407 ft | 265 kts | 137° |
| 2026-04-23 02:52 | -2.52996 | -54.77093 | 5168 ft | 268 kts | 137° |
| 2026-04-23 02:53 | -2.54435 | -54.75902 | 5943 ft | 271 kts | 137° |
| 2026-04-23 02:53 | -2.55878 | -54.74704 | 6705 ft | 274 kts | 137° |
| 2026-04-23 02:53 | -2.57354 | -54.73475 | 7448 ft | 277 kts | 138° |
| 2026-04-23 02:53 | -2.58841 | -54.72236 | 8138 ft | 282 kts | 138° |
| 2026-04-23 02:54 | -2.60353 | -54.70976 | 8863 ft | 285 kts | 138° |
| 2026-04-23 02:54 | -2.61863 | -54.69716 | 9571 ft | 288 kts | 138° |
| 2026-04-23 02:54 | -2.63366 | -54.68375 | 10210 ft | 294 kts | 133° |
| 2026-04-23 02:54 | -2.64596 | -54.66684 | 10684 ft | 304 kts | 114° |
| 2026-04-23 02:55 | -2.65188 | -54.64679 | 11387 ft | 306 kts | 98° |
| 2026-04-23 02:55 | -2.65325 | -54.62534 | 11998 ft | 313 kts | 88° |
| 2026-04-23 02:55 | -2.64969 | -54.60348 | 12363 ft | 328 kts | 70° |
| 2026-04-23 02:55 | -2.63818 | -54.58331 | 12702 ft | 344 kts | 51° |
| 2026-04-23 02:56 | -2.62183 | -54.56539 | 12999 ft | 360 kts | 47° |
| 2026-04-23 02:56 | -2.60407 | -54.54684 | 13313 ft | 373 kts | 47° |
| 2026-04-23 02:56 | -2.58621 | -54.52803 | 13895 ft | 377 kts | 48° |
| 2026-04-23 02:56 | -2.56803 | -54.50864 | 14548 ft | 379 kts | 48° |
| 2026-04-23 02:57 | -2.55018 | -54.48940 | 15174 ft | 382 kts | 49° |
| 2026-04-23 02:57 | -2.53199 | -54.46970 | 15764 ft | 386 kts | 49° |
| 2026-04-23 02:57 | -2.51381 | -54.45001 | 16342 ft | 389 kts | 49° |
| 2026-04-23 02:57 | -2.49539 | -54.43006 | 16890 ft | 393 kts | 49° |
| 2026-04-23 02:58 | -2.47676 | -54.40989 | 17469 ft | 395 kts | 48° |
| 2026-04-23 02:58 | -2.45813 | -54.38973 | 17985 ft | 399 kts | 48° |
| 2026-04-23 02:58 | -2.43920 | -54.36925 | 18550 ft | 401 kts | 48° |
| 2026-04-23 02:58 | -2.42012 | -54.34860 | 19073 ft | 404 kts | 48° |
| 2026-04-23 02:59 | -2.40098 | -54.32793 | 19572 ft | 407 kts | 48° |
| 2026-04-23 02:59 | -2.38169 | -54.30711 | 20038 ft | 411 kts | 48° |
| 2026-04-23 02:59 | -2.36197 | -54.28582 | 20536 ft | 414 kts | 47° |
| 2026-04-23 02:59 | -2.34239 | -54.26472 | 21032 ft | 415 kts | 47° |
| 2026-04-23 03:00 | -2.32276 | -54.24355 | 21506 ft | 418 kts | 47° |
| 2026-04-23 03:00 | -2.30302 | -54.22223 | 21949 ft | 420 kts | 47° |
| 2026-04-23 03:00 | -2.28433 | -54.19973 | 22402 ft | 422 kts | 55° |
| 2026-04-23 03:00 | -2.26911 | -54.17456 | 22818 ft | 426 kts | 63° |
| 2026-04-23 03:01 | -2.25759 | -54.14738 | 23285 ft | 427 kts | 71° |
| 2026-04-23 03:01 | -2.24954 | -54.11855 | 23686 ft | 431 kts | 77° |
| 2026-04-23 03:01 | -2.24394 | -54.08928 | 24089 ft | 433 kts | 80° |
| 2026-04-23 03:01 | -2.23953 | -54.05969 | 24500 ft | 435 kts | 82° |
| 2026-04-23 03:02 | -2.23549 | -54.02930 | 24891 ft | 438 kts | 82° |
| 2026-04-23 03:02 | -2.23163 | -53.99935 | 25293 ft | 440 kts | 82° |
| 2026-04-23 03:02 | -2.22769 | -53.96896 | 25655 ft | 443 kts | 82° |
| 2026-04-23 03:02 | -2.22363 | -53.93826 | 26056 ft | 445 kts | 82° |
| 2026-04-23 03:03 | -2.21950 | -53.90773 | 26436 ft | 447 kts | 81° |
| 2026-04-23 03:03 | -2.21529 | -53.87720 | 26777 ft | 449 kts | 81° |
| 2026-04-23 03:03 | -2.21094 | -53.84603 | 27143 ft | 452 kts | 81° |
| 2026-04-23 03:03 | -2.20657 | -53.81506 | 27519 ft | 453 kts | 81° |
| 2026-04-23 03:04 | -2.20211 | -53.78368 | 27889 ft | 455 kts | 81° |
| 2026-04-23 03:04 | -2.19765 | -53.75243 | 28189 ft | 458 kts | 81° |
| 2026-04-23 03:04 | -2.19315 | -53.72089 | 28503 ft | 460 kts | 81° |
| 2026-04-23 03:04 | -2.18864 | -53.68932 | 28861 ft | 462 kts | 81° |
| 2026-04-23 03:05 | -2.18407 | -53.65730 | 29196 ft | 464 kts | 81° |
| 2026-04-23 03:05 | -2.17956 | -53.62575 | 29583 ft | 465 kts | 81° |
| 2026-04-23 03:05 | -2.17496 | -53.59369 | 30165 ft | 461 kts | 81° |
| 2026-04-23 03:05 | -2.17047 | -53.56233 | 30691 ft | 458 kts | 81° |
| 2026-04-23 03:06 | -2.16598 | -53.53104 | 31153 ft | 457 kts | 81° |
| 2026-04-23 03:06 | -2.16150 | -53.49973 | 31622 ft | 455 kts | 81° |
| 2026-04-23 03:06 | -2.15706 | -53.46863 | 32085 ft | 453 kts | 81° |
| 2026-04-23 03:06 | -2.15256 | -53.43731 | 32501 ft | 452 kts | 81° |
| 2026-04-23 03:07 | -2.14817 | -53.40664 | 33002 ft | 450 kts | 81° |
| 2026-04-23 03:07 | -2.14375 | -53.37572 | 33537 ft | 447 kts | 81° |
| 2026-04-23 03:07 | -2.13933 | -53.34484 | 33957 ft | 446 kts | 81° |
| 2026-04-23 03:07 | -2.13494 | -53.31429 | 34373 ft | 445 kts | 81° |
| 2026-04-23 03:08 | -2.13055 | -53.28368 | 34770 ft | 445 kts | 81° |
| 2026-04-23 03:08 | -2.12168 | -53.22198 | 34854 ft | 447 kts | 81° |
| 2026-04-23 03:09 | -2.11296 | -53.16122 | 34855 ft | 444 kts | 81° |
| 2026-04-23 03:09 | -2.10425 | -53.10013 | 34853 ft | 444 kts | 81° |
| 2026-04-23 03:10 | -2.09554 | -53.03928 | 34851 ft | 444 kts | 81° |
| 2026-04-23 03:10 | -2.08678 | -52.97839 | 34853 ft | 443 kts | 81° |
| 2026-04-23 03:11 | -2.07798 | -52.91729 | 34856 ft | 445 kts | 81° |
| 2026-04-23 03:11 | -2.06924 | -52.85616 | 34853 ft | 445 kts | 81° |
| 2026-04-23 03:12 | -2.06046 | -52.79504 | 34852 ft | 444 kts | 81° |
| 2026-04-23 03:12 | -2.05168 | -52.73407 | 34855 ft | 445 kts | 81° |
| 2026-04-23 03:13 | -2.04293 | -52.67297 | 34854 ft | 444 kts | 81° |
| 2026-04-23 03:13 | -2.03420 | -52.61200 | 34855 ft | 443 kts | 81° |
| 2026-04-23 03:14 | -2.02544 | -52.55113 | 34853 ft | 445 kts | 81° |
| 2026-04-23 03:14 | -2.01666 | -52.49031 | 34846 ft | 446 kts | 81° |
| 2026-04-23 03:15 | -2.00786 | -52.42903 | 34846 ft | 445 kts | 81° |
| 2026-04-23 03:15 | -1.99903 | -52.36760 | 34845 ft | 446 kts | 81° |
| 2026-04-23 03:16 | -1.99024 | -52.30670 | 34847 ft | 446 kts | 81° |
| 2026-04-23 03:16 | -1.97706 | -52.21513 | 34844 ft | 445 kts | 81° |
| 2026-04-23 03:17 | -1.96823 | -52.15368 | 34845 ft | 446 kts | 81° |
| 2026-04-23 03:17 | -1.95941 | -52.09248 | 34843 ft | 447 kts | 81° |
| 2026-04-23 03:18 | -1.95056 | -52.03122 | 34844 ft | 447 kts | 81° |
| 2026-04-23 03:18 | -1.94172 | -51.96983 | 34848 ft | 447 kts | 81° |
| 2026-04-23 03:19 | -1.93289 | -51.90862 | 34858 ft | 446 kts | 81° |
| 2026-04-23 03:19 | -1.92402 | -51.84747 | 34862 ft | 445 kts | 81° |
| 2026-04-23 03:20 | -1.91520 | -51.78619 | 34863 ft | 446 kts | 81° |
| 2026-04-23 03:20 | -1.90640 | -51.72510 | 34861 ft | 446 kts | 81° |
| 2026-04-23 03:21 | -1.89754 | -51.66379 | 34863 ft | 447 kts | 81° |
| 2026-04-23 03:21 | -1.88864 | -51.60216 | 34863 ft | 446 kts | 81° |
| 2026-04-23 03:22 | -1.87976 | -51.54102 | 34865 ft | 445 kts | 81° |
| 2026-04-23 03:22 | -1.87095 | -51.48043 | 34865 ft | 445 kts | 81° |
| 2026-04-23 03:23 | -1.86209 | -51.41913 | 34864 ft | 445 kts | 81° |
| 2026-04-23 03:23 | -1.85328 | -51.35780 | 34864 ft | 445 kts | 81° |
| 2026-04-23 03:24 | -1.84448 | -51.29667 | 34864 ft | 446 kts | 81° |
| 2026-04-23 03:24 | -1.83564 | -51.23550 | 34864 ft | 446 kts | 81° |
| 2026-04-23 03:25 | -1.82682 | -51.17433 | 34864 ft | 445 kts | 81° |
| 2026-04-23 03:25 | -1.81803 | -51.11362 | 34864 ft | 444 kts | 81° |
| 2026-04-23 03:26 | -1.80916 | -51.05229 | 34864 ft | 444 kts | 81° |
| 2026-04-23 03:26 | -1.80035 | -50.99155 | 34864 ft | 445 kts | 81° |
| 2026-04-23 03:27 | -1.79277 | -50.93045 | 34865 ft | 446 kts | 83° |
| 2026-04-23 03:27 | -1.78710 | -50.86884 | 34865 ft | 446 kts | 84° |
| 2026-04-23 03:28 | -1.78162 | -50.80709 | 34865 ft | 445 kts | 84° |
| 2026-04-23 03:28 | -1.77599 | -50.74578 | 34862 ft | 444 kts | 83° |
| 2026-04-23 03:29 | -1.77026 | -50.68480 | 34858 ft | 444 kts | 83° |
| 2026-04-23 03:29 | -1.76436 | -50.62318 | 34855 ft | 444 kts | 83° |
| 2026-04-23 03:30 | -1.75846 | -50.56176 | 34853 ft | 445 kts | 83° |
| 2026-04-23 03:30 | -1.75254 | -50.50037 | 34858 ft | 445 kts | 83° |
| 2026-04-23 03:31 | -1.74659 | -50.43888 | 34857 ft | 445 kts | 83° |
| 2026-04-23 03:31 | -1.74072 | -50.37782 | 34859 ft | 444 kts | 83° |
| 2026-04-23 03:32 | -1.73478 | -50.31631 | 34859 ft | 445 kts | 83° |
| 2026-04-23 03:32 | -1.72883 | -50.25473 | 34823 ft | 442 kts | 83° |
| 2026-04-23 03:33 | -1.72590 | -50.22432 | 34420 ft | 438 kts | 83° |
| 2026-04-23 03:33 | -1.72297 | -50.19416 | 33785 ft | 436 kts | 83° |
| 2026-04-23 03:33 | -1.72007 | -50.16425 | 33082 ft | 435 kts | 83° |
| 2026-04-23 03:33 | -1.71719 | -50.13425 | 32376 ft | 435 kts | 84° |
| 2026-04-23 03:34 | -1.71431 | -50.10440 | 31694 ft | 435 kts | 84° |
| 2026-04-23 03:34 | -1.71142 | -50.07447 | 31179 ft | 430 kts | 84° |
| 2026-04-23 03:34 | -1.70858 | -50.04497 | 30630 ft | 427 kts | 84° |
| 2026-04-23 03:34 | -1.70578 | -50.01574 | 30062 ft | 424 kts | 84° |
| 2026-04-23 03:35 | -1.70297 | -49.98660 | 29488 ft | 421 kts | 84° |
| 2026-04-23 03:35 | -1.70021 | -49.95786 | 28914 ft | 418 kts | 84° |
| 2026-04-23 03:35 | -1.69739 | -49.92881 | 28349 ft | 416 kts | 84° |
| 2026-04-23 03:35 | -1.69463 | -49.90026 | 27795 ft | 413 kts | 84° |
| 2026-04-23 03:36 | -1.69188 | -49.87180 | 27227 ft | 411 kts | 84° |
| 2026-04-23 03:36 | -1.68919 | -49.84377 | 26665 ft | 409 kts | 84° |
| 2026-04-23 03:36 | -1.68647 | -49.81550 | 26090 ft | 407 kts | 84° |
| 2026-04-23 03:36 | -1.68378 | -49.78759 | 25527 ft | 405 kts | 84° |
| 2026-04-23 03:37 | -1.68106 | -49.75957 | 24958 ft | 403 kts | 84° |
| 2026-04-23 03:37 | -1.67837 | -49.73181 | 24385 ft | 401 kts | 84° |
| 2026-04-23 03:37 | -1.67571 | -49.70433 | 23826 ft | 399 kts | 84° |
| 2026-04-23 03:37 | -1.67305 | -49.67713 | 23276 ft | 396 kts | 84° |
| 2026-04-23 03:38 | -1.67040 | -49.64985 | 22714 ft | 394 kts | 84° |
| 2026-04-23 03:38 | -1.66776 | -49.62271 | 22154 ft | 392 kts | 84° |
| 2026-04-23 03:38 | -1.66515 | -49.59567 | 21602 ft | 390 kts | 84° |
| 2026-04-23 03:38 | -1.66258 | -49.56899 | 21048 ft | 388 kts | 84° |
| 2026-04-23 03:39 | -1.66001 | -49.54236 | 20486 ft | 386 kts | 84° |
| 2026-04-23 03:39 | -1.65742 | -49.51560 | 19926 ft | 384 kts | 84° |
| 2026-04-23 03:39 | -1.65487 | -49.48926 | 19371 ft | 382 kts | 84° |
| 2026-04-23 03:39 | -1.65235 | -49.46320 | 18822 ft | 379 kts | 84° |
| 2026-04-23 03:40 | -1.64982 | -49.43687 | 18272 ft | 377 kts | 84° |
| 2026-04-23 03:40 | -1.64735 | -49.41103 | 17724 ft | 374 kts | 84° |
| 2026-04-23 03:40 | -1.64487 | -49.38515 | 17177 ft | 372 kts | 84° |
| 2026-04-23 03:40 | -1.64243 | -49.35979 | 16635 ft | 369 kts | 84° |
| 2026-04-23 03:41 | -1.63996 | -49.33435 | 16088 ft | 367 kts | 84° |
| 2026-04-23 03:41 | -1.63749 | -49.30903 | 15539 ft | 365 kts | 84° |
| 2026-04-23 03:41 | -1.63507 | -49.28407 | 14992 ft | 362 kts | 84° |
| 2026-04-23 03:41 | -1.63268 | -49.25930 | 14453 ft | 359 kts | 84° |
| 2026-04-23 03:42 | -1.63027 | -49.23447 | 13915 ft | 356 kts | 84° |
| 2026-04-23 03:42 | -1.62789 | -49.20998 | 13385 ft | 353 kts | 84° |
| 2026-04-23 03:42 | -1.62554 | -49.18590 | 12851 ft | 350 kts | 84° |
| 2026-04-23 03:42 | -1.62320 | -49.16174 | 12318 ft | 347 kts | 84° |
| 2026-04-23 03:43 | -1.62090 | -49.13799 | 11902 ft | 340 kts | 84° |
| 2026-04-23 03:43 | -1.61865 | -49.11489 | 11452 ft | 329 kts | 84° |
| 2026-04-23 03:43 | -1.61648 | -49.09252 | 10812 ft | 324 kts | 84° |
| 2026-04-23 03:43 | -1.61433 | -49.07034 | 10319 ft | 314 kts | 84° |
| 2026-04-23 03:44 | -1.61225 | -49.04902 | 10128 ft | 300 kts | 84° |
| 2026-04-23 03:44 | -1.61026 | -49.02875 | 10011 ft | 287 kts | 84° |
| 2026-04-23 03:44 | -1.60838 | -49.00938 | 9756 ft | 280 kts | 84° |
| 2026-04-23 03:44 | -1.60652 | -48.99005 | 9377 ft | 279 kts | 84° |
| 2026-04-23 03:45 | -1.60465 | -48.97068 | 9023 ft | 277 kts | 84° |
| 2026-04-23 03:45 | -1.60282 | -48.95178 | 8678 ft | 275 kts | 84° |
| 2026-04-23 03:45 | -1.60095 | -48.93291 | 8347 ft | 272 kts | 84° |
| 2026-04-23 03:45 | -1.59913 | -48.91422 | 8001 ft | 270 kts | 84° |
| 2026-04-23 03:46 | -1.59733 | -48.89550 | 7668 ft | 267 kts | 84° |
| 2026-04-23 03:46 | -1.59557 | -48.87723 | 7338 ft | 265 kts | 85° |
| 2026-04-23 03:46 | -1.59381 | -48.85904 | 7008 ft | 262 kts | 84° |
| 2026-04-23 03:46 | -1.59203 | -48.84101 | 6679 ft | 260 kts | 84° |
| 2026-04-23 03:47 | -1.59030 | -48.82328 | 6366 ft | 257 kts | 84° |
| 2026-04-23 03:47 | -1.58858 | -48.80559 | 6055 ft | 250 kts | 84° |
| 2026-04-23 03:47 | -1.58695 | -48.78866 | 5733 ft | 244 kts | 84° |
| 2026-04-23 03:47 | -1.58532 | -48.77185 | 5425 ft | 237 kts | 84° |
| 2026-04-23 03:48 | -1.58378 | -48.75583 | 5134 ft | 232 kts | 84° |
| 2026-04-23 03:48 | -1.58223 | -48.73993 | 4848 ft | 227 kts | 84° |
| 2026-04-23 03:48 | -1.58068 | -48.72433 | 4617 ft | 220 kts | 84° |
| 2026-04-23 03:48 | -1.57924 | -48.70965 | 4541 ft | 205 kts | 84° |
| 2026-04-23 03:49 | -1.57792 | -48.69607 | 4472 ft | 190 kts | 84° |
| 2026-04-23 03:49 | -1.57620 | -48.68351 | 4408 ft | 175 kts | 74° |
| 2026-04-23 03:49 | -1.57094 | -48.67256 | 4379 ft | 176 kts | 59° |
| 2026-04-23 03:49 | -1.56355 | -48.66245 | 4003 ft | 187 kts | 53° |
| 2026-04-23 03:50 | -1.55477 | -48.65258 | 3621 ft | 190 kts | 49° |
| 2026-04-23 03:50 | -1.54567 | -48.64328 | 3369 ft | 186 kts | 48° |
| 2026-04-23 03:50 | -1.53663 | -48.63415 | 3160 ft | 180 kts | 48° |
| 2026-04-23 03:50 | -1.52805 | -48.62547 | 2965 ft | 174 kts | 48° |
| 2026-04-23 03:51 | -1.51950 | -48.61692 | 2810 ft | 173 kts | 47° |
| 2026-04-23 03:51 | -1.51096 | -48.60836 | 2675 ft | 173 kts | 48° |
| 2026-04-23 03:51 | -1.50254 | -48.59989 | 2578 ft | 171 kts | 47° |
| 2026-04-23 03:51 | -1.49412 | -48.59145 | 2572 ft | 174 kts | 47° |
| 2026-04-23 03:52 | -1.48564 | -48.58297 | 2571 ft | 173 kts | 47° |
| 2026-04-23 03:52 | -1.47696 | -48.57423 | 2415 ft | 175 kts | 47° |
| 2026-04-23 03:52 | -1.46847 | -48.56570 | 2156 ft | 174 kts | 47° |
| 2026-04-23 03:52 | -1.45992 | -48.55711 | 1919 ft | 172 kts | 47° |
| 2026-04-23 03:53 | -1.45155 | -48.54870 | 1687 ft | 168 kts | 47° |
| 2026-04-23 03:53 | -1.44335 | -48.54049 | 1543 ft | 164 kts | 47° |
| 2026-04-23 03:53 | -1.43567 | -48.53280 | 1362 ft | 155 kts | 47° |
| 2026-04-23 03:53 | -1.42822 | -48.52532 | 1137 ft | 151 kts | 46° |
| 2026-04-23 03:54 | -1.42074 | -48.51779 | 947 ft | 153 kts | 47° |
| 2026-04-23 03:54 | -1.41338 | -48.51032 | 754 ft | 152 kts | 46° |
| 2026-04-23 03:54 | -1.40583 | -48.50286 | 560 ft | 153 kts | 46° |
| 2026-04-23 03:54 | -1.39834 | -48.49510 | 372 ft | 152 kts | 49° |
| 2026-04-23 03:55 | -1.39084 | -48.48774 | 176 ft | 148 kts | 43° |
| 2026-04-23 03:55 | -1.38372 | -48.48073 | 62 ft | 135 kts | 45° |
| 2026-04-23 03:55 | -1.37902 | -48.47580 | 61 ft | 64 kts | 46° |
| 2026-04-23 03:55 | -1.37695 | -48.47410 | 61 ft | 14 kts | 44° |
| 2026-04-23 03:56 | -1.37726 | -48.47409 | 61 ft | 12 kts | 216° |
| 2026-04-23 03:56 | -1.37813 | -48.47491 | 61 ft | 19 kts | 227° |
| 2026-04-23 03:56 | -1.37920 | -48.47598 | 61 ft | 24 kts | 211° |
| 2026-04-23 03:56 | -1.38090 | -48.47629 | 61 ft | 27 kts | 186° |
| 2026-04-23 03:57 | -1.38320 | -48.47649 | 61 ft | 37 kts | 185° |
| 2026-04-23 03:57 | -1.38544 | -48.47667 | 61 ft | 31 kts | 186° |
| 2026-04-23 03:57 | -1.38759 | -48.47686 | 61 ft | 28 kts | 185° |
| 2026-04-23 03:57 | -1.38940 | -48.47702 | 61 ft | 23 kts | 180° |
| 2026-04-23 03:58 | -1.39028 | -48.47727 | 61 ft | 11 kts | 244° |
| 2026-04-23 03:58 | -1.39027 | -48.47792 | 61 ft | 3 kts | 276° |
| 2026-04-23 03:58 | -1.39024 | -48.47805 | 61 ft | 4 kts | 306° |
| 2026-04-23 03:58 | -1.39014 | -48.47813 | 61 ft | 1 kts | 330° |
| 2026-04-23 03:59 | -1.39005 | -48.47818 | 61 ft | 1 kts | 329° |
| 2026-04-23 03:59 | -1.39002 | -48.47827 | 61 ft | 2 kts | 274° |
| 2026-04-23 03:59 | -1.39002 | -48.47847 | 61 ft | 2 kts | 271° |
| 2026-04-23 03:59 | -1.39001 | -48.47860 | 61 ft | 1 kts | 275° |
| 2026-04-23 04:00 | -1.39000 | -48.47868 | 61 ft | 1 kts | 276° |
| 2026-04-23 04:00 | -1.38999 | -48.47879 | 61 ft | 1 kts | 276° |